sensor_id;sensor_type;location;lat;lon;timestamp;P1;durP1;ratioP1;P2;durP2;ratioP2
48881;SDS011;57063;51.406;-2.402;2023-04-21T00:02:17;6.53;;;2.08;;
48881;SDS011;57063;51.406;-2.402;2023-04-21T00:04:43;4.53;;;1.48;;
48881;SDS011;57063;51.406;-2.402;2023-04-21T00:07:09;3.05;;;1.42;;
48881;SDS011;57063;51.406;-2.402;2023-04-21T00:09:35;4.28;;;1.50;;
48881;SDS011;57063;51.406;-2.402;2023-04-21T00:12:00;2.33;;;1.20;;
48881;SDS011;57063;51.406;-2.402;2023-04-21T00:14:26;4.40;;;1.30;;
48881;SDS011;57063;51.406;-2.402;2023-04-21T00:16:51;6.00;;;1.40;;
48881;SDS011;57063;51.406;-2.402;2023-04-21T00:19:19;2.88;;;1.38;;
48881;SDS011;57063;51.406;-2.402;2023-04-21T00:21:44;3.55;;;1.20;;
48881;SDS011;57063;51.406;-2.402;2023-04-21T00:24:10;2.20;;;1.30;;
48881;SDS011;57063;51.406;-2.402;2023-04-21T00:26:35;4.38;;;1.52;;
48881;SDS011;57063;51.406;-2.402;2023-04-21T00:29:01;2.72;;;1.42;;
48881;SDS011;57063;51.406;-2.402;2023-04-21T00:31:26;4.43;;;1.67;;
48881;SDS011;57063;51.406;-2.402;2023-04-21T00:33:52;3.03;;;1.70;;
48881;SDS011;57063;51.406;-2.402;2023-04-21T00:36:18;5.28;;;1.30;;
48881;SDS011;57063;51.406;-2.402;2023-04-21T00:38:43;3.15;;;1.40;;
48881;SDS011;57063;51.406;-2.402;2023-04-21T00:41:09;5.00;;;1.85;;
48881;SDS011;57063;51.406;-2.402;2023-04-21T00:43:34;3.55;;;1.50;;
48881;SDS011;57063;51.406;-2.402;2023-04-21T00:45:59;3.60;;;1.50;;
48881;SDS011;57063;51.406;-2.402;2023-04-21T00:48:25;3.13;;;1.50;;
48881;SDS011;57063;51.406;-2.402;2023-04-21T00:50:50;3.40;;;1.40;;
48881;SDS011;57063;51.406;-2.402;2023-04-21T00:53:15;3.95;;;1.60;;
48881;SDS011;57063;51.406;-2.402;2023-04-21T00:55:41;4.38;;;1.70;;
48881;SDS011;57063;51.406;-2.402;2023-04-21T00:58:07;3.75;;;1.67;;
48881;SDS011;57063;51.406;-2.402;2023-04-21T01:00:32;5.60;;;1.90;;
48881;SDS011;57063;51.406;-2.402;2023-04-21T01:02:58;5.10;;;2.00;;
48881;SDS011;57063;51.406;-2.402;2023-04-21T01:05:24;4.70;;;1.48;;
48881;SDS011;57063;51.406;-2.402;2023-04-21T01:07:49;4.45;;;1.85;;
48881;SDS011;57063;51.406;-2.402;2023-04-21T01:10:15;2.72;;;1.55;;
48881;SDS011;57063;51.406;-2.402;2023-04-21T01:12:41;5.30;;;2.05;;
48881;SDS011;57063;51.406;-2.402;2023-04-21T01:15:08;2.47;;;1.42;;
48881;SDS011;57063;51.406;-2.402;2023-04-21T01:17:35;4.75;;;1.70;;
48881;SDS011;57063;51.406;-2.402;2023-04-21T01:20:04;3.25;;;1.77;;
48881;SDS011;57063;51.406;-2.402;2023-04-21T01:22:33;4.88;;;1.92;;
48881;SDS011;57063;51.406;-2.402;2023-04-21T01:25:01;3.92;;;1.70;;
48881;SDS011;57063;51.406;-2.402;2023-04-21T01:27:27;4.38;;;1.60;;
48881;SDS011;57063;51.406;-2.402;2023-04-21T01:29:53;5.80;;;2.15;;
48881;SDS011;57063;51.406;-2.402;2023-04-21T01:32:19;5.50;;;2.30;;
48881;SDS011;57063;51.406;-2.402;2023-04-21T01:34:47;3.58;;;1.88;;
48881;SDS011;57063;51.406;-2.402;2023-04-21T01:37:15;3.55;;;1.92;;
48881;SDS011;57063;51.406;-2.402;2023-04-21T01:39:43;6.53;;;1.65;;
48881;SDS011;57063;51.406;-2.402;2023-04-21T01:42:11;3.28;;;1.80;;
48881;SDS011;57063;51.406;-2.402;2023-04-21T01:44:36;3.58;;;1.80;;
48881;SDS011;57063;51.406;-2.402;2023-04-21T01:47:02;4.35;;;1.70;;
48881;SDS011;57063;51.406;-2.402;2023-04-21T01:49:28;5.53;;;1.83;;
48881;SDS011;57063;51.406;-2.402;2023-04-21T01:51:54;3.70;;;2.00;;
48881;SDS011;57063;51.406;-2.402;2023-04-21T01:54:19;4.30;;;1.70;;
48881;SDS011;57063;51.406;-2.402;2023-04-21T01:56:45;4.32;;;1.77;;
48881;SDS011;57063;51.406;-2.402;2023-04-21T01:59:10;3.65;;;1.80;;
48881;SDS011;57063;51.406;-2.402;2023-04-21T02:01:36;4.38;;;1.90;;
48881;SDS011;57063;51.406;-2.402;2023-04-21T02:04:01;4.72;;;2.08;;
48881;SDS011;57063;51.406;-2.402;2023-04-21T02:06:28;5.05;;;1.75;;
48881;SDS011;57063;51.406;-2.402;2023-04-21T02:08:55;2.20;;;1.50;;
48881;SDS011;57063;51.406;-2.402;2023-04-21T02:11:20;5.63;;;2.55;;
48881;SDS011;57063;51.406;-2.402;2023-04-21T02:13:46;7.47;;;1.98;;
48881;SDS011;57063;51.406;-2.402;2023-04-21T02:16:12;5.18;;;1.95;;
48881;SDS011;57063;51.406;-2.402;2023-04-21T02:18:38;8.05;;;1.92;;
48881;SDS011;57063;51.406;-2.402;2023-04-21T02:21:03;4.40;;;1.83;;
48881;SDS011;57063;51.406;-2.402;2023-04-21T02:23:30;3.80;;;1.70;;
48881;SDS011;57063;51.406;-2.402;2023-04-21T02:25:55;3.28;;;1.80;;
48881;SDS011;57063;51.406;-2.402;2023-04-21T02:28:20;5.05;;;2.10;;
48881;SDS011;57063;51.406;-2.402;2023-04-21T02:30:45;5.53;;;2.40;;
48881;SDS011;57063;51.406;-2.402;2023-04-21T02:33:11;5.13;;;2.15;;
48881;SDS011;57063;51.406;-2.402;2023-04-21T02:35:36;5.72;;;2.03;;
48881;SDS011;57063;51.406;-2.402;2023-04-21T02:38:01;4.45;;;2.03;;
48881;SDS011;57063;51.406;-2.402;2023-04-21T02:40:31;3.20;;;1.67;;
48881;SDS011;57063;51.406;-2.402;2023-04-21T02:42:56;6.38;;;2.30;;
48881;SDS011;57063;51.406;-2.402;2023-04-21T02:45:22;3.13;;;1.90;;
48881;SDS011;57063;51.406;-2.402;2023-04-21T02:47:47;5.57;;;2.50;;
48881;SDS011;57063;51.406;-2.402;2023-04-21T02:50:13;4.50;;;2.20;;
48881;SDS011;57063;51.406;-2.402;2023-04-21T02:52:38;3.47;;;2.03;;
48881;SDS011;57063;51.406;-2.402;2023-04-21T02:55:03;7.40;;;2.30;;
48881;SDS011;57063;51.406;-2.402;2023-04-21T02:57:29;4.43;;;2.17;;
48881;SDS011;57063;51.406;-2.402;2023-04-21T02:59:54;4.07;;;2.17;;
48881;SDS011;57063;51.406;-2.402;2023-04-21T03:02:20;6.30;;;2.35;;
48881;SDS011;57063;51.406;-2.402;2023-04-21T03:04:45;7.13;;;2.83;;
48881;SDS011;57063;51.406;-2.402;2023-04-21T03:07:11;5.75;;;2.40;;
48881;SDS011;57063;51.406;-2.402;2023-04-21T03:09:37;7.70;;;2.30;;
48881;SDS011;57063;51.406;-2.402;2023-04-21T03:12:03;4.22;;;2.38;;
48881;SDS011;57063;51.406;-2.402;2023-04-21T03:14:29;6.03;;;2.40;;
48881;SDS011;57063;51.406;-2.402;2023-04-21T03:16:54;5.72;;;1.92;;
48881;SDS011;57063;51.406;-2.402;2023-04-21T03:19:20;6.32;;;2.60;;
48881;SDS011;57063;51.406;-2.402;2023-04-21T03:21:45;4.88;;;2.28;;
48881;SDS011;57063;51.406;-2.402;2023-04-21T03:24:11;2.20;;;1.75;;
48881;SDS011;57063;51.406;-2.402;2023-04-21T03:26:37;3.97;;;2.20;;
48881;SDS011;57063;51.406;-2.402;2023-04-21T03:29:04;3.97;;;2.00;;
48881;SDS011;57063;51.406;-2.402;2023-04-21T03:31:30;4.05;;;2.40;;
48881;SDS011;57063;51.406;-2.402;2023-04-21T03:33:55;5.68;;;2.05;;
48881;SDS011;57063;51.406;-2.402;2023-04-21T03:36:21;4.90;;;2.67;;
48881;SDS011;57063;51.406;-2.402;2023-04-21T03:38:46;7.63;;;2.95;;
48881;SDS011;57063;51.406;-2.402;2023-04-21T03:41:11;7.50;;;2.70;;
48881;SDS011;57063;51.406;-2.402;2023-04-21T03:43:37;3.70;;;2.13;;
48881;SDS011;57063;51.406;-2.402;2023-04-21T03:46:02;6.25;;;2.28;;
48881;SDS011;57063;51.406;-2.402;2023-04-21T03:48:27;3.97;;;2.38;;
48881;SDS011;57063;51.406;-2.402;2023-04-21T03:50:53;5.95;;;2.40;;
48881;SDS011;57063;51.406;-2.402;2023-04-21T03:53:19;4.85;;;2.50;;
48881;SDS011;57063;51.406;-2.402;2023-04-21T03:55:44;4.57;;;2.42;;
48881;SDS011;57063;51.406;-2.402;2023-04-21T03:58:13;5.38;;;2.22;;
48881;SDS011;57063;51.406;-2.402;2023-04-21T04:00:39;5.20;;;2.33;;
48881;SDS011;57063;51.406;-2.402;2023-04-21T04:03:05;5.55;;;2.30;;
48881;SDS011;57063;51.406;-2.402;2023-04-21T04:05:31;5.13;;;1.92;;
48881;SDS011;57063;51.406;-2.402;2023-04-21T04:07:57;8.77;;;2.78;;
48881;SDS011;57063;51.406;-2.402;2023-04-21T04:10:22;6.35;;;2.47;;
48881;SDS011;57063;51.406;-2.402;2023-04-21T04:12:48;5.50;;;2.55;;
48881;SDS011;57063;51.406;-2.402;2023-04-21T04:15:13;8.45;;;2.58;;
48881;SDS011;57063;51.406;-2.402;2023-04-21T04:17:39;4.22;;;2.35;;
48881;SDS011;57063;51.406;-2.402;2023-04-21T04:20:05;4.53;;;2.60;;
48881;SDS011;57063;51.406;-2.402;2023-04-21T04:22:32;4.45;;;2.53;;
48881;SDS011;57063;51.406;-2.402;2023-04-21T04:24:58;4.43;;;2.30;;
48881;SDS011;57063;51.406;-2.402;2023-04-21T04:27:25;4.85;;;2.60;;
48881;SDS011;57063;51.406;-2.402;2023-04-21T04:29:51;5.82;;;3.00;;
48881;SDS011;57063;51.406;-2.402;2023-04-21T04:32:17;5.25;;;2.83;;
48881;SDS011;57063;51.406;-2.402;2023-04-21T04:34:42;6.28;;;2.83;;
48881;SDS011;57063;51.406;-2.402;2023-04-21T04:37:07;5.07;;;3.17;;
48881;SDS011;57063;51.406;-2.402;2023-04-21T04:39:35;8.13;;;2.50;;
48881;SDS011;57063;51.406;-2.402;2023-04-21T04:42:01;4.20;;;2.65;;
48881;SDS011;57063;51.406;-2.402;2023-04-21T04:44:27;5.90;;;2.95;;
48881;SDS011;57063;51.406;-2.402;2023-04-21T04:46:53;6.50;;;3.53;;
48881;SDS011;57063;51.406;-2.402;2023-04-21T04:49:18;7.30;;;3.15;;
48881;SDS011;57063;51.406;-2.402;2023-04-21T04:51:43;5.75;;;3.00;;
48881;SDS011;57063;51.406;-2.402;2023-04-21T04:54:09;3.78;;;2.47;;
48881;SDS011;57063;51.406;-2.402;2023-04-21T04:56:34;6.35;;;3.17;;
48881;SDS011;57063;51.406;-2.402;2023-04-21T04:59:00;2.85;;;2.28;;
48881;SDS011;57063;51.406;-2.402;2023-04-21T05:01:26;5.70;;;2.72;;
48881;SDS011;57063;51.406;-2.402;2023-04-21T05:03:54;7.93;;;2.78;;
48881;SDS011;57063;51.406;-2.402;2023-04-21T05:06:20;4.72;;;3.08;;
48881;SDS011;57063;51.406;-2.402;2023-04-21T05:08:46;5.57;;;2.95;;
48881;SDS011;57063;51.406;-2.402;2023-04-21T05:11:11;5.40;;;2.80;;
48881;SDS011;57063;51.406;-2.402;2023-04-21T05:13:37;6.20;;;3.28;;
48881;SDS011;57063;51.406;-2.402;2023-04-21T05:16:02;7.22;;;2.78;;
48881;SDS011;57063;51.406;-2.402;2023-04-21T05:18:28;5.20;;;2.78;;
48881;SDS011;57063;51.406;-2.402;2023-04-21T05:20:53;6.80;;;2.70;;
48881;SDS011;57063;51.406;-2.402;2023-04-21T05:23:19;7.45;;;2.65;;
48881;SDS011;57063;51.406;-2.402;2023-04-21T05:25:44;4.40;;;2.38;;
48881;SDS011;57063;51.406;-2.402;2023-04-21T05:28:10;9.23;;;2.75;;
48881;SDS011;57063;51.406;-2.402;2023-04-21T05:30:35;5.75;;;2.30;;
48881;SDS011;57063;51.406;-2.402;2023-04-21T05:33:01;5.50;;;3.00;;
48881;SDS011;57063;51.406;-2.402;2023-04-21T05:35:28;4.22;;;2.63;;
48881;SDS011;57063;51.406;-2.402;2023-04-21T05:37:54;5.25;;;2.60;;
48881;SDS011;57063;51.406;-2.402;2023-04-21T05:40:20;6.10;;;2.97;;
48881;SDS011;57063;51.406;-2.402;2023-04-21T05:42:45;8.95;;;3.53;;
48881;SDS011;57063;51.406;-2.402;2023-04-21T05:45:11;10.50;;;2.55;;
48881;SDS011;57063;51.406;-2.402;2023-04-21T05:47:36;12.07;;;2.70;;
48881;SDS011;57063;51.406;-2.402;2023-04-21T05:50:02;8.70;;;3.50;;
48881;SDS011;57063;51.406;-2.402;2023-04-21T05:52:28;7.75;;;3.38;;
48881;SDS011;57063;51.406;-2.402;2023-04-21T05:54:54;4.97;;;2.95;;
48881;SDS011;57063;51.406;-2.402;2023-04-21T05:57:19;12.05;;;3.03;;
48881;SDS011;57063;51.406;-2.402;2023-04-21T05:59:45;9.27;;;2.97;;
48881;SDS011;57063;51.406;-2.402;2023-04-21T06:02:10;7.72;;;2.58;;
48881;SDS011;57063;51.406;-2.402;2023-04-21T06:04:36;15.00;;;3.75;;
48881;SDS011;57063;51.406;-2.402;2023-04-21T06:07:07;7.32;;;2.40;;
48881;SDS011;57063;51.406;-2.402;2023-04-21T06:09:34;12.45;;;3.03;;
48881;SDS011;57063;51.406;-2.402;2023-04-21T06:12:03;7.10;;;2.53;;
48881;SDS011;57063;51.406;-2.402;2023-04-21T06:14:29;7.32;;;2.72;;
48881;SDS011;57063;51.406;-2.402;2023-04-21T06:16:55;8.00;;;3.00;;
48881;SDS011;57063;51.406;-2.402;2023-04-21T06:19:20;6.80;;;2.78;;
48881;SDS011;57063;51.406;-2.402;2023-04-21T06:21:45;9.50;;;3.15;;
48881;SDS011;57063;51.406;-2.402;2023-04-21T06:24:11;8.70;;;3.53;;
48881;SDS011;57063;51.406;-2.402;2023-04-21T06:26:36;6.55;;;2.75;;
48881;SDS011;57063;51.406;-2.402;2023-04-21T06:29:01;7.88;;;2.80;;
48881;SDS011;57063;51.406;-2.402;2023-04-21T06:31:27;8.43;;;2.60;;
48881;SDS011;57063;51.406;-2.402;2023-04-21T06:33:52;17.42;;;2.90;;
48881;SDS011;57063;51.406;-2.402;2023-04-21T06:36:17;4.63;;;2.83;;
48881;SDS011;57063;51.406;-2.402;2023-04-21T06:38:43;9.95;;;3.03;;
48881;SDS011;57063;51.406;-2.402;2023-04-21T06:41:09;8.70;;;3.35;;
48881;SDS011;57063;51.406;-2.402;2023-04-21T06:43:34;7.00;;;2.78;;
48881;SDS011;57063;51.406;-2.402;2023-04-21T06:46:00;6.35;;;2.90;;
48881;SDS011;57063;51.406;-2.402;2023-04-21T06:48:25;8.70;;;3.22;;
48881;SDS011;57063;51.406;-2.402;2023-04-21T06:50:51;10.40;;;3.67;;
48881;SDS011;57063;51.406;-2.402;2023-04-21T06:53:17;5.85;;;2.90;;
48881;SDS011;57063;51.406;-2.402;2023-04-21T06:55:42;6.43;;;2.78;;
48881;SDS011;57063;51.406;-2.402;2023-04-21T06:58:08;9.55;;;2.70;;
48881;SDS011;57063;51.406;-2.402;2023-04-21T07:00:33;7.88;;;2.97;;
48881;SDS011;57063;51.406;-2.402;2023-04-21T07:02:59;8.20;;;3.53;;
48881;SDS011;57063;51.406;-2.402;2023-04-21T07:05:24;11.38;;;2.85;;
48881;SDS011;57063;51.406;-2.402;2023-04-21T07:07:50;5.95;;;2.83;;
48881;SDS011;57063;51.406;-2.402;2023-04-21T07:10:15;7.88;;;2.97;;
48881;SDS011;57063;51.406;-2.402;2023-04-21T07:12:43;7.03;;;2.50;;
48881;SDS011;57063;51.406;-2.402;2023-04-21T07:15:10;11.30;;;3.28;;
48881;SDS011;57063;51.406;-2.402;2023-04-21T07:17:36;4.75;;;2.83;;
48881;SDS011;57063;51.406;-2.402;2023-04-21T07:20:01;6.60;;;3.17;;
48881;SDS011;57063;51.406;-2.402;2023-04-21T07:22:26;4.40;;;2.50;;
48881;SDS011;57063;51.406;-2.402;2023-04-21T07:24:52;8.95;;;2.80;;
48881;SDS011;57063;51.406;-2.402;2023-04-21T07:27:17;8.40;;;3.00;;
48881;SDS011;57063;51.406;-2.402;2023-04-21T07:29:43;6.35;;;2.58;;
48881;SDS011;57063;51.406;-2.402;2023-04-21T07:32:09;6.70;;;2.75;;
48881;SDS011;57063;51.406;-2.402;2023-04-21T07:34:34;6.35;;;2.70;;
48881;SDS011;57063;51.406;-2.402;2023-04-21T07:37:00;4.93;;;2.90;;
48881;SDS011;57063;51.406;-2.402;2023-04-21T07:39:25;14.73;;;4.45;;
48881;SDS011;57063;51.406;-2.402;2023-04-21T07:41:50;6.13;;;3.20;;
48881;SDS011;57063;51.406;-2.402;2023-04-21T07:44:16;9.15;;;3.92;;
48881;SDS011;57063;51.406;-2.402;2023-04-21T07:46:41;9.27;;;4.20;;
48881;SDS011;57063;51.406;-2.402;2023-04-21T07:49:06;6.35;;;3.35;;
48881;SDS011;57063;51.406;-2.402;2023-04-21T07:51:32;7.07;;;3.25;;
48881;SDS011;57063;51.406;-2.402;2023-04-21T07:53:57;9.25;;;3.95;;
48881;SDS011;57063;51.406;-2.402;2023-04-21T07:56:23;6.95;;;3.58;;
48881;SDS011;57063;51.406;-2.402;2023-04-21T07:58:48;8.77;;;3.10;;
48881;SDS011;57063;51.406;-2.402;2023-04-21T08:01:14;10.15;;;3.33;;
48881;SDS011;57063;51.406;-2.402;2023-04-21T08:03:39;12.35;;;3.42;;
48881;SDS011;57063;51.406;-2.402;2023-04-21T08:06:05;6.57;;;3.20;;
48881;SDS011;57063;51.406;-2.402;2023-04-21T08:08:30;5.78;;;2.65;;
48881;SDS011;57063;51.406;-2.402;2023-04-21T08:10:56;8.00;;;3.15;;
48881;SDS011;57063;51.406;-2.402;2023-04-21T08:13:21;6.05;;;3.40;;
48881;SDS011;57063;51.406;-2.402;2023-04-21T08:15:49;6.30;;;3.20;;
48881;SDS011;57063;51.406;-2.402;2023-04-21T08:18:19;6.40;;;3.30;;
48881;SDS011;57063;51.406;-2.402;2023-04-21T08:20:45;6.82;;;4.10;;
48881;SDS011;57063;51.406;-2.402;2023-04-21T08:23:12;5.93;;;3.08;;
48881;SDS011;57063;51.406;-2.402;2023-04-21T08:25:38;8.13;;;3.28;;
48881;SDS011;57063;51.406;-2.402;2023-04-21T08:28:03;7.22;;;2.88;;
48881;SDS011;57063;51.406;-2.402;2023-04-21T08:30:29;7.80;;;2.78;;
48881;SDS011;57063;51.406;-2.402;2023-04-21T08:32:54;6.72;;;3.20;;
48881;SDS011;57063;51.406;-2.402;2023-04-21T08:35:19;9.57;;;3.53;;
48881;SDS011;57063;51.406;-2.402;2023-04-21T08:37:45;13.40;;;3.60;;
48881;SDS011;57063;51.406;-2.402;2023-04-21T08:40:10;13.85;;;3.85;;
48881;SDS011;57063;51.406;-2.402;2023-04-21T08:42:36;8.45;;;3.22;;
48881;SDS011;57063;51.406;-2.402;2023-04-21T08:45:03;9.27;;;3.15;;
48881;SDS011;57063;51.406;-2.402;2023-04-21T08:47:29;7.88;;;3.53;;
48881;SDS011;57063;51.406;-2.402;2023-04-21T08:49:56;7.32;;;3.58;;
48881;SDS011;57063;51.406;-2.402;2023-04-21T08:52:23;9.05;;;3.53;;
48881;SDS011;57063;51.406;-2.402;2023-04-21T08:54:49;9.32;;;4.00;;
48881;SDS011;57063;51.406;-2.402;2023-04-21T08:57:17;7.40;;;3.35;;
48881;SDS011;57063;51.406;-2.402;2023-04-21T08:59:43;12.43;;;3.78;;
48881;SDS011;57063;51.406;-2.402;2023-04-21T09:02:13;9.38;;;4.40;;
48881;SDS011;57063;51.406;-2.402;2023-04-21T09:04:43;8.02;;;3.50;;
48881;SDS011;57063;51.406;-2.402;2023-04-21T09:07:10;7.22;;;3.42;;
48881;SDS011;57063;51.406;-2.402;2023-04-21T09:09:52;6.68;;;3.53;;
48881;SDS011;57063;51.406;-2.402;2023-04-21T09:14:44;9.15;;;3.92;;
48881;SDS011;57063;51.406;-2.402;2023-04-21T09:17:09;8.45;;;3.15;;
48881;SDS011;57063;51.406;-2.402;2023-04-21T09:19:34;7.43;;;3.53;;
48881;SDS011;57063;51.406;-2.402;2023-04-21T09:22:00;6.10;;;3.40;;
48881;SDS011;57063;51.406;-2.402;2023-04-21T09:24:26;5.35;;;3.13;;
48881;SDS011;57063;51.406;-2.402;2023-04-21T09:26:51;6.45;;;3.55;;
48881;SDS011;57063;51.406;-2.402;2023-04-21T09:29:21;10.70;;;3.13;;
48881;SDS011;57063;51.406;-2.402;2023-04-21T09:31:50;6.13;;;3.28;;
48881;SDS011;57063;51.406;-2.402;2023-04-21T09:34:17;6.57;;;3.20;;
48881;SDS011;57063;51.406;-2.402;2023-04-21T09:36:43;11.75;;;3.42;;
48881;SDS011;57063;51.406;-2.402;2023-04-21T09:39:10;8.75;;;3.40;;
48881;SDS011;57063;51.406;-2.402;2023-04-21T09:41:35;11.00;;;3.50;;
48881;SDS011;57063;51.406;-2.402;2023-04-21T09:44:01;4.78;;;3.13;;
48881;SDS011;57063;51.406;-2.402;2023-04-21T09:46:28;9.50;;;3.17;;
48881;SDS011;57063;51.406;-2.402;2023-04-21T09:48:56;10.10;;;3.85;;
48881;SDS011;57063;51.406;-2.402;2023-04-21T09:51:26;9.00;;;3.45;;
48881;SDS011;57063;51.406;-2.402;2023-04-21T09:53:55;7.20;;;3.40;;
48881;SDS011;57063;51.406;-2.402;2023-04-21T09:56:24;7.35;;;3.25;;
48881;SDS011;57063;51.406;-2.402;2023-04-21T09:58:52;5.72;;;2.95;;
48881;SDS011;57063;51.406;-2.402;2023-04-21T10:01:21;12.60;;;3.33;;
48881;SDS011;57063;51.406;-2.402;2023-04-21T10:03:50;10.07;;;3.67;;
48881;SDS011;57063;51.406;-2.402;2023-04-21T10:06:17;6.05;;;3.22;;
48881;SDS011;57063;51.406;-2.402;2023-04-21T10:08:43;5.60;;;3.13;;
48881;SDS011;57063;51.406;-2.402;2023-04-21T10:11:09;8.73;;;2.80;;
48881;SDS011;57063;51.406;-2.402;2023-04-21T10:13:36;7.60;;;3.45;;
48881;SDS011;57063;51.406;-2.402;2023-04-21T10:16:09;14.07;;;2.90;;
48881;SDS011;57063;51.406;-2.402;2023-04-21T10:21:03;7.93;;;2.60;;
48881;SDS011;57063;51.406;-2.402;2023-04-21T10:23:41;5.57;;;3.22;;
48881;SDS011;57063;51.406;-2.402;2023-04-21T10:26:20;5.88;;;3.28;;
48881;SDS011;57063;51.406;-2.402;2023-04-21T10:28:53;5.15;;;2.67;;
48881;SDS011;57063;51.406;-2.402;2023-04-21T10:41:54;28.25;;;3.40;;
48881;SDS011;57063;51.406;-2.402;2023-04-21T10:44:22;6.60;;;2.65;;
48881;SDS011;57063;51.406;-2.402;2023-04-21T10:46:49;7.82;;;2.90;;
48881;SDS011;57063;51.406;-2.402;2023-04-21T10:54:21;8.15;;;2.97;;
48881;SDS011;57063;51.406;-2.402;2023-04-21T10:56:48;5.88;;;3.28;;
48881;SDS011;57063;51.406;-2.402;2023-04-21T10:59:16;7.00;;;2.80;;
48881;SDS011;57063;51.406;-2.402;2023-04-21T11:01:42;4.40;;;2.40;;
48881;SDS011;57063;51.406;-2.402;2023-04-21T11:04:20;7.07;;;2.95;;
48881;SDS011;57063;51.406;-2.402;2023-04-21T11:09:33;9.88;;;2.47;;
48881;SDS011;57063;51.406;-2.402;2023-04-21T11:12:00;6.70;;;2.33;;
48881;SDS011;57063;51.406;-2.402;2023-04-21T11:14:34;9.57;;;2.40;;
48881;SDS011;57063;51.406;-2.402;2023-04-21T11:17:02;6.90;;;2.97;;
48881;SDS011;57063;51.406;-2.402;2023-04-21T11:19:41;9.73;;;3.05;;
48881;SDS011;57063;51.406;-2.402;2023-04-21T11:22:09;11.27;;;2.50;;
48881;SDS011;57063;51.406;-2.402;2023-04-21T11:24:35;5.97;;;3.00;;
48881;SDS011;57063;51.406;-2.402;2023-04-21T11:27:00;8.30;;;2.53;;
48881;SDS011;57063;51.406;-2.402;2023-04-21T11:29:26;14.13;;;2.90;;
48881;SDS011;57063;51.406;-2.402;2023-04-21T11:31:53;8.23;;;3.25;;
48881;SDS011;57063;51.406;-2.402;2023-04-21T11:34:19;8.32;;;2.65;;
48881;SDS011;57063;51.406;-2.402;2023-04-21T11:36:45;17.05;;;2.92;;
48881;SDS011;57063;51.406;-2.402;2023-04-21T11:39:12;16.80;;;2.95;;
48881;SDS011;57063;51.406;-2.402;2023-04-21T11:41:44;12.98;;;2.92;;
48881;SDS011;57063;51.406;-2.402;2023-04-21T11:44:12;18.40;;;2.75;;
48881;SDS011;57063;51.406;-2.402;2023-04-21T11:46:45;7.53;;;2.38;;
48881;SDS011;57063;51.406;-2.402;2023-04-21T11:49:11;9.63;;;2.97;;
48881;SDS011;57063;51.406;-2.402;2023-04-21T11:51:38;9.90;;;2.28;;
48881;SDS011;57063;51.406;-2.402;2023-04-21T11:54:11;8.23;;;2.50;;
48881;SDS011;57063;51.406;-2.402;2023-04-21T11:56:38;14.48;;;2.80;;
48881;SDS011;57063;51.406;-2.402;2023-04-21T11:59:08;7.53;;;2.90;;
48881;SDS011;57063;51.406;-2.402;2023-04-21T12:01:41;14.40;;;2.67;;
48881;SDS011;57063;51.406;-2.402;2023-04-21T12:04:13;13.65;;;2.50;;
48881;SDS011;57063;51.406;-2.402;2023-04-21T12:06:40;7.63;;;3.00;;
48881;SDS011;57063;51.406;-2.402;2023-04-21T12:09:06;9.35;;;2.55;;
48881;SDS011;57063;51.406;-2.402;2023-04-21T12:11:32;6.70;;;2.65;;
48881;SDS011;57063;51.406;-2.402;2023-04-21T12:13:59;5.63;;;2.45;;
48881;SDS011;57063;51.406;-2.402;2023-04-21T12:16:25;17.40;;;2.42;;
48881;SDS011;57063;51.406;-2.402;2023-04-21T12:18:51;12.43;;;2.70;;
48881;SDS011;57063;51.406;-2.402;2023-04-21T12:21:17;10.73;;;2.65;;
48881;SDS011;57063;51.406;-2.402;2023-04-21T12:23:43;8.93;;;2.75;;
48881;SDS011;57063;51.406;-2.402;2023-04-21T12:26:09;13.95;;;3.28;;
48881;SDS011;57063;51.406;-2.402;2023-04-21T12:28:34;8.68;;;3.33;;
48881;SDS011;57063;51.406;-2.402;2023-04-21T12:31:00;12.60;;;4.53;;
48881;SDS011;57063;51.406;-2.402;2023-04-21T12:33:25;6.97;;;3.33;;
48881;SDS011;57063;51.406;-2.402;2023-04-21T12:35:51;12.70;;;3.08;;
48881;SDS011;57063;51.406;-2.402;2023-04-21T12:38:16;6.38;;;2.95;;
48881;SDS011;57063;51.406;-2.402;2023-04-21T12:40:42;9.63;;;2.75;;
48881;SDS011;57063;51.406;-2.402;2023-04-21T12:43:07;7.15;;;3.05;;
48881;SDS011;57063;51.406;-2.402;2023-04-21T12:45:32;11.35;;;3.10;;
48881;SDS011;57063;51.406;-2.402;2023-04-21T12:47:58;7.07;;;2.90;;
48881;SDS011;57063;51.406;-2.402;2023-04-21T12:50:23;7.60;;;2.70;;
48881;SDS011;57063;51.406;-2.402;2023-04-21T12:52:49;10.77;;;2.67;;
48881;SDS011;57063;51.406;-2.402;2023-04-21T12:55:16;6.85;;;2.65;;
48881;SDS011;57063;51.406;-2.402;2023-04-21T12:57:41;7.35;;;2.42;;
48881;SDS011;57063;51.406;-2.402;2023-04-21T13:00:07;6.20;;;2.70;;
48881;SDS011;57063;51.406;-2.402;2023-04-21T13:02:36;4.30;;;2.22;;
48881;SDS011;57063;51.406;-2.402;2023-04-21T13:05:02;7.53;;;2.15;;
48881;SDS011;57063;51.406;-2.402;2023-04-21T13:07:29;9.35;;;2.83;;
48881;SDS011;57063;51.406;-2.402;2023-04-21T13:09:55;4.22;;;1.90;;
48881;SDS011;57063;51.406;-2.402;2023-04-21T13:12:21;5.22;;;2.25;;
48881;SDS011;57063;51.406;-2.402;2023-04-21T13:14:47;5.00;;;2.40;;
48881;SDS011;57063;51.406;-2.402;2023-04-21T13:17:13;5.18;;;2.08;;
48881;SDS011;57063;51.406;-2.402;2023-04-21T13:19:39;8.85;;;2.53;;
48881;SDS011;57063;51.406;-2.402;2023-04-21T13:22:05;4.35;;;1.88;;
48881;SDS011;57063;51.406;-2.402;2023-04-21T13:24:31;4.57;;;2.22;;
48881;SDS011;57063;51.406;-2.402;2023-04-21T13:26:56;3.28;;;1.90;;
48881;SDS011;57063;51.406;-2.402;2023-04-21T13:29:22;3.80;;;1.70;;
48881;SDS011;57063;51.406;-2.402;2023-04-21T13:31:48;3.80;;;2.22;;
48881;SDS011;57063;51.406;-2.402;2023-04-21T13:34:13;3.40;;;1.88;;
48881;SDS011;57063;51.406;-2.402;2023-04-21T13:36:39;5.25;;;1.70;;
48881;SDS011;57063;51.406;-2.402;2023-04-21T13:39:07;4.88;;;1.83;;
48881;SDS011;57063;51.406;-2.402;2023-04-21T13:41:33;4.00;;;1.70;;
48881;SDS011;57063;51.406;-2.402;2023-04-21T13:43:59;2.80;;;1.42;;
48881;SDS011;57063;51.406;-2.402;2023-04-21T13:46:24;6.43;;;1.77;;
48881;SDS011;57063;51.406;-2.402;2023-04-21T13:48:49;3.88;;;2.10;;
48881;SDS011;57063;51.406;-2.402;2023-04-21T13:51:15;2.85;;;1.80;;
48881;SDS011;57063;51.406;-2.402;2023-04-21T13:53:41;3.78;;;1.70;;
48881;SDS011;57063;51.406;-2.402;2023-04-21T13:56:06;3.30;;;1.55;;
48881;SDS011;57063;51.406;-2.402;2023-04-21T13:58:32;4.57;;;1.95;;
48881;SDS011;57063;51.406;-2.402;2023-04-21T14:00:57;3.78;;;1.80;;
48881;SDS011;57063;51.406;-2.402;2023-04-21T14:03:23;3.50;;;1.77;;
48881;SDS011;57063;51.406;-2.402;2023-04-21T14:05:48;2.60;;;1.85;;
48881;SDS011;57063;51.406;-2.402;2023-04-21T14:08:13;4.80;;;1.63;;
48881;SDS011;57063;51.406;-2.402;2023-04-21T14:10:39;3.20;;;1.70;;
48881;SDS011;57063;51.406;-2.402;2023-04-21T14:13:04;2.17;;;1.65;;
48881;SDS011;57063;51.406;-2.402;2023-04-21T14:15:30;4.55;;;1.60;;
48881;SDS011;57063;51.406;-2.402;2023-04-21T14:17:56;5.25;;;1.80;;
48881;SDS011;57063;51.406;-2.402;2023-04-21T14:20:21;2.47;;;1.30;;
48881;SDS011;57063;51.406;-2.402;2023-04-21T14:22:47;1.88;;;1.27;;
48881;SDS011;57063;51.406;-2.402;2023-04-21T14:25:12;3.65;;;2.08;;
48881;SDS011;57063;51.406;-2.402;2023-04-21T14:27:37;3.03;;;1.70;;
48881;SDS011;57063;51.406;-2.402;2023-04-21T14:30:03;3.67;;;2.38;;
48881;SDS011;57063;51.406;-2.402;2023-04-21T14:32:29;3.10;;;1.48;;
48881;SDS011;57063;51.406;-2.402;2023-04-21T14:34:55;3.50;;;1.50;;
48881;SDS011;57063;51.406;-2.402;2023-04-21T14:37:22;5.10;;;2.00;;
48881;SDS011;57063;51.406;-2.402;2023-04-21T14:39:48;4.22;;;1.65;;
48881;SDS011;57063;51.406;-2.402;2023-04-21T14:42:13;3.05;;;1.75;;
48881;SDS011;57063;51.406;-2.402;2023-04-21T14:44:39;2.03;;;1.27;;
48881;SDS011;57063;51.406;-2.402;2023-04-21T14:47:04;2.08;;;1.63;;
48881;SDS011;57063;51.406;-2.402;2023-04-21T14:49:30;4.55;;;1.90;;
48881;SDS011;57063;51.406;-2.402;2023-04-21T14:51:56;1.50;;;1.38;;